sensor_id;sensor_type;location;lat;lon;timestamp;temperature;humidity
16643;DHT22;8435;52.184;5.406;2023-03-21T00:00:40;12.80;99.90
16643;DHT22;8435;52.184;5.406;2023-03-21T00:03:07;12.80;99.90
16643;DHT22;8435;52.184;5.406;2023-03-21T00:05:38;12.80;99.90
16643;DHT22;8435;52.184;5.406;2023-03-21T00:08:05;12.80;99.90
16643;DHT22;8435;52.184;5.406;2023-03-21T00:10:32;12.80;99.90
16643;DHT22;8435;52.184;5.406;2023-03-21T00:12:59;12.80;99.90
16643;DHT22;8435;52.184;5.406;2023-03-21T00:15:26;12.80;99.90
16643;DHT22;8435;52.184;5.406;2023-03-21T00:17:55;12.80;99.90
16643;DHT22;8435;52.184;5.406;2023-03-21T00:20:28;12.80;99.90
16643;DHT22;8435;52.184;5.406;2023-03-21T00:22:55;12.80;99.90
16643;DHT22;8435;52.184;5.406;2023-03-21T00:25:21;12.80;99.90
16643;DHT22;8435;52.184;5.406;2023-03-21T00:27:48;12.80;99.90
16643;DHT22;8435;52.184;5.406;2023-03-21T00:30:17;12.80;99.90
16643;DHT22;8435;52.184;5.406;2023-03-21T00:32:45;12.80;99.90
16643;DHT22;8435;52.184;5.406;2023-03-21T00:35:13;12.80;99.90
16643;DHT22;8435;52.184;5.406;2023-03-21T00:37:40;12.80;99.90
16643;DHT22;8435;52.184;5.406;2023-03-21T00:40:08;12.70;99.90
16643;DHT22;8435;52.184;5.406;2023-03-21T00:42:35;12.70;99.90
16643;DHT22;8435;52.184;5.406;2023-03-21T00:45:03;12.70;99.90
16643;DHT22;8435;52.184;5.406;2023-03-21T00:47:30;12.70;99.90
16643;DHT22;8435;52.184;5.406;2023-03-21T00:49:57;12.80;99.90
16643;DHT22;8435;52.184;5.406;2023-03-21T00:52:25;12.70;99.90
16643;DHT22;8435;52.184;5.406;2023-03-21T00:54:52;12.70;99.90
16643;DHT22;8435;52.184;5.406;2023-03-21T00:57:19;12.70;99.90
16643;DHT22;8435;52.184;5.406;2023-03-21T00:59:46;12.70;99.90
16643;DHT22;8435;52.184;5.406;2023-03-21T01:02:12;12.70;99.90
16643;DHT22;8435;52.184;5.406;2023-03-21T01:04:47;12.70;99.90
16643;DHT22;8435;52.184;5.406;2023-03-21T01:07:14;12.70;99.90
16643;DHT22;8435;52.184;5.406;2023-03-21T01:09:42;12.70;99.90
16643;DHT22;8435;52.184;5.406;2023-03-21T01:12:08;12.70;99.90
16643;DHT22;8435;52.184;5.406;2023-03-21T01:14:35;12.70;99.90
16643;DHT22;8435;52.184;5.406;2023-03-21T01:17:03;12.70;99.90
16643;DHT22;8435;52.184;5.406;2023-03-21T01:19:31;12.70;99.90
16643;DHT22;8435;52.184;5.406;2023-03-21T01:22:00;12.70;99.90
16643;DHT22;8435;52.184;5.406;2023-03-21T01:24:27;12.70;99.90
16643;DHT22;8435;52.184;5.406;2023-03-21T01:26:55;12.70;99.90
16643;DHT22;8435;52.184;5.406;2023-03-21T01:29:22;12.70;99.90
16643;DHT22;8435;52.184;5.406;2023-03-21T01:31:48;12.60;99.90
16643;DHT22;8435;52.184;5.406;2023-03-21T01:34:15;12.70;99.90
16643;DHT22;8435;52.184;5.406;2023-03-21T01:36:42;12.70;99.90
16643;DHT22;8435;52.184;5.406;2023-03-21T01:39:09;12.70;99.90
16643;DHT22;8435;52.184;5.406;2023-03-21T01:41:38;12.60;99.90
16643;DHT22;8435;52.184;5.406;2023-03-21T01:44:08;12.70;99.90
16643;DHT22;8435;52.184;5.406;2023-03-21T01:46:40;12.70;99.90
16643;DHT22;8435;52.184;5.406;2023-03-21T01:49:14;12.70;99.90
16643;DHT22;8435;52.184;5.406;2023-03-21T01:51:45;12.70;99.90
16643;DHT22;8435;52.184;5.406;2023-03-21T01:54:18;12.70;99.90
16643;DHT22;8435;52.184;5.406;2023-03-21T01:56:50;12.70;99.90
16643;DHT22;8435;52.184;5.406;2023-03-21T01:59:20;12.70;99.90
16643;DHT22;8435;52.184;5.406;2023-03-21T02:01:50;12.70;99.90
16643;DHT22;8435;52.184;5.406;2023-03-21T02:04:18;12.70;99.90
16643;DHT22;8435;52.184;5.406;2023-03-21T02:06:55;12.70;99.90
16643;DHT22;8435;52.184;5.406;2023-03-21T02:09:26;12.60;99.90
16643;DHT22;8435;52.184;5.406;2023-03-21T02:11:54;12.70;99.90
16643;DHT22;8435;52.184;5.406;2023-03-21T02:14:22;12.70;99.90
16643;DHT22;8435;52.184;5.406;2023-03-21T02:16:56;12.70;99.90
16643;DHT22;8435;52.184;5.406;2023-03-21T02:19:50;12.70;99.90
16643;DHT22;8435;52.184;5.406;2023-03-21T02:22:45;12.70;99.90
16643;DHT22;8435;52.184;5.406;2023-03-21T02:25:33;12.70;99.90
16643;DHT22;8435;52.184;5.406;2023-03-21T02:28:13;12.70;99.90
16643;DHT22;8435;52.184;5.406;2023-03-21T02:31:09;12.60;99.90
16643;DHT22;8435;52.184;5.406;2023-03-21T02:37:04;12.70;99.90
16643;DHT22;8435;52.184;5.406;2023-03-21T02:39:45;12.70;99.90
16643;DHT22;8435;52.184;5.406;2023-03-21T02:42:16;12.60;99.90
16643;DHT22;8435;52.184;5.406;2023-03-21T02:44:48;12.60;99.90
16643;DHT22;8435;52.184;5.406;2023-03-21T02:47:20;12.60;99.90
16643;DHT22;8435;52.184;5.406;2023-03-21T02:49:53;12.70;99.90
16643;DHT22;8435;52.184;5.406;2023-03-21T02:52:25;12.70;99.90
16643;DHT22;8435;52.184;5.406;2023-03-21T02:54:55;12.60;99.90
16643;DHT22;8435;52.184;5.406;2023-03-21T02:57:22;12.60;99.90
16643;DHT22;8435;52.184;5.406;2023-03-21T02:59:51;12.60;99.90
16643;DHT22;8435;52.184;5.406;2023-03-21T03:02:23;12.60;99.90
16643;DHT22;8435;52.184;5.406;2023-03-21T03:04:51;12.60;99.90
16643;DHT22;8435;52.184;5.406;2023-03-21T03:07:30;12.60;99.90
16643;DHT22;8435;52.184;5.406;2023-03-21T03:10:18;12.60;99.90
16643;DHT22;8435;52.184;5.406;2023-03-21T03:12:56;12.60;99.90
16643;DHT22;8435;52.184;5.406;2023-03-21T03:15:34;12.60;99.90
16643;DHT22;8435;52.184;5.406;2023-03-21T03:18:11;12.60;99.90
16643;DHT22;8435;52.184;5.406;2023-03-21T03:20:47;12.60;99.90
16643;DHT22;8435;52.184;5.406;2023-03-21T03:23:23;12.60;99.90
16643;DHT22;8435;52.184;5.406;2023-03-21T03:25:55;12.60;99.90
16643;DHT22;8435;52.184;5.406;2023-03-21T03:28:27;12.60;99.90
16643;DHT22;8435;52.184;5.406;2023-03-21T03:30:57;12.60;99.90
16643;DHT22;8435;52.184;5.406;2023-03-21T03:33:26;12.60;99.90
16643;DHT22;8435;52.184;5.406;2023-03-21T03:35:55;12.60;99.90
16643;DHT22;8435;52.184;5.406;2023-03-21T03:38:25;12.60;99.90
16643;DHT22;8435;52.184;5.406;2023-03-21T03:40:55;12.60;99.90
16643;DHT22;8435;52.184;5.406;2023-03-21T03:43:27;12.60;99.90
16643;DHT22;8435;52.184;5.406;2023-03-21T03:46:02;12.60;99.90
16643;DHT22;8435;52.184;5.406;2023-03-21T03:48:33;12.60;99.90
16643;DHT22;8435;52.184;5.406;2023-03-21T03:51:06;12.60;99.90
16643;DHT22;8435;52.184;5.406;2023-03-21T03:53:40;12.60;99.90
16643;DHT22;8435;52.184;5.406;2023-03-21T03:56:09;12.60;99.90
16643;DHT22;8435;52.184;5.406;2023-03-21T03:58:36;12.60;99.90
16643;DHT22;8435;52.184;5.406;2023-03-21T04:01:05;12.40;99.90
16643;DHT22;8435;52.184;5.406;2023-03-21T04:03:33;12.50;99.90
16643;DHT22;8435;52.184;5.406;2023-03-21T04:06:02;12.50;99.90
16643;DHT22;8435;52.184;5.406;2023-03-21T04:08:29;12.50;99.90
16643;DHT22;8435;52.184;5.406;2023-03-21T04:10:57;12.50;99.90
16643;DHT22;8435;52.184;5.406;2023-03-21T04:13:25;12.60;99.90
16643;DHT22;8435;52.184;5.406;2023-03-21T04:15:51;12.60;99.90
16643;DHT22;8435;52.184;5.406;2023-03-21T04:18:19;12.50;99.90
16643;DHT22;8435;52.184;5.406;2023-03-21T04:20:47;12.50;99.90
16643;DHT22;8435;52.184;5.406;2023-03-21T04:23:16;12.50;99.90
16643;DHT22;8435;52.184;5.406;2023-03-21T04:25:43;12.50;99.90
16643;DHT22;8435;52.184;5.406;2023-03-21T04:28:12;12.50;99.90
16643;DHT22;8435;52.184;5.406;2023-03-21T04:30:39;12.50;99.90
16643;DHT22;8435;52.184;5.406;2023-03-21T04:33:06;12.50;99.90
16643;DHT22;8435;52.184;5.406;2023-03-21T04:35:32;12.50;99.90
16643;DHT22;8435;52.184;5.406;2023-03-21T04:38:01;12.50;99.90
16643;DHT22;8435;52.184;5.406;2023-03-21T04:40:28;12.50;99.90
16643;DHT22;8435;52.184;5.406;2023-03-21T04:42:55;12.50;99.90
16643;DHT22;8435;52.184;5.406;2023-03-21T04:45:23;12.50;99.90
16643;DHT22;8435;52.184;5.406;2023-03-21T04:47:50;12.50;99.90
16643;DHT22;8435;52.184;5.406;2023-03-21T04:50:16;12.50;99.90
16643;DHT22;8435;52.184;5.406;2023-03-21T04:52:43;12.50;99.90
16643;DHT22;8435;52.184;5.406;2023-03-21T04:55:10;12.50;99.90
16643;DHT22;8435;52.184;5.406;2023-03-21T04:57:37;12.50;99.90
16643;DHT22;8435;52.184;5.406;2023-03-21T05:00:06;12.50;99.90
16643;DHT22;8435;52.184;5.406;2023-03-21T05:02:37;12.50;99.90
16643;DHT22;8435;52.184;5.406;2023-03-21T05:05:04;12.50;99.90
16643;DHT22;8435;52.184;5.406;2023-03-21T05:07:31;12.50;99.90
16643;DHT22;8435;52.184;5.406;2023-03-21T05:09:58;12.40;99.90
16643;DHT22;8435;52.184;5.406;2023-03-21T05:12:25;12.50;99.90
16643;DHT22;8435;52.184;5.406;2023-03-21T05:14:51;12.40;99.90
16643;DHT22;8435;52.184;5.406;2023-03-21T05:17:18;12.40;99.90
16643;DHT22;8435;52.184;5.406;2023-03-21T05:19:49;12.40;99.90
16643;DHT22;8435;52.184;5.406;2023-03-21T05:22:17;12.40;99.90
16643;DHT22;8435;52.184;5.406;2023-03-21T05:24:52;12.40;99.90
16643;DHT22;8435;52.184;5.406;2023-03-21T05:27:20;12.40;99.90
16643;DHT22;8435;52.184;5.406;2023-03-21T05:30:00;12.40;99.90
16643;DHT22;8435;52.184;5.406;2023-03-21T05:32:27;12.40;99.90
16643;DHT22;8435;52.184;5.406;2023-03-21T05:34:56;12.40;99.90
16643;DHT22;8435;52.184;5.406;2023-03-21T05:37:23;12.30;99.90
16643;DHT22;8435;52.184;5.406;2023-03-21T05:39:50;12.30;99.90
16643;DHT22;8435;52.184;5.406;2023-03-21T05:42:17;12.40;99.90
16643;DHT22;8435;52.184;5.406;2023-03-21T05:44:44;12.30;99.90
16643;DHT22;8435;52.184;5.406;2023-03-21T05:47:11;12.30;99.90
16643;DHT22;8435;52.184;5.406;2023-03-21T05:49:38;12.30;99.90
16643;DHT22;8435;52.184;5.406;2023-03-21T05:52:06;12.30;99.90
16643;DHT22;8435;52.184;5.406;2023-03-21T05:54:33;12.30;99.90
16643;DHT22;8435;52.184;5.406;2023-03-21T05:57:00;12.30;99.90
16643;DHT22;8435;52.184;5.406;2023-03-21T05:59:27;12.30;99.90
16643;DHT22;8435;52.184;5.406;2023-03-21T06:01:54;12.30;99.90
16643;DHT22;8435;52.184;5.406;2023-03-21T06:04:20;12.30;99.90
16643;DHT22;8435;52.184;5.406;2023-03-21T06:06:47;12.30;99.90
16643;DHT22;8435;52.184;5.406;2023-03-21T06:09:16;12.30;99.90
16643;DHT22;8435;52.184;5.406;2023-03-21T06:11:46;12.30;99.90
16643;DHT22;8435;52.184;5.406;2023-03-21T06:14:14;12.30;99.90
16643;DHT22;8435;52.184;5.406;2023-03-21T06:16:41;12.30;99.90
16643;DHT22;8435;52.184;5.406;2023-03-21T06:19:08;12.30;99.90
16643;DHT22;8435;52.184;5.406;2023-03-21T06:21:35;12.30;99.90
16643;DHT22;8435;52.184;5.406;2023-03-21T06:24:02;12.30;99.90
16643;DHT22;8435;52.184;5.406;2023-03-21T06:26:30;12.30;99.90
16643;DHT22;8435;52.184;5.406;2023-03-21T06:28:57;12.30;99.90
16643;DHT22;8435;52.184;5.406;2023-03-21T06:31:24;12.30;99.90
16643;DHT22;8435;52.184;5.406;2023-03-21T06:33:52;12.30;99.90
16643;DHT22;8435;52.184;5.406;2023-03-21T06:36:19;12.30;99.90
16643;DHT22;8435;52.184;5.406;2023-03-21T06:38:46;12.30;99.90
16643;DHT22;8435;52.184;5.406;2023-03-21T06:41:13;12.30;99.90
16643;DHT22;8435;52.184;5.406;2023-03-21T06:43:42;12.30;99.90
16643;DHT22;8435;52.184;5.406;2023-03-21T06:46:09;12.30;99.90
16643;DHT22;8435;52.184;5.406;2023-03-21T06:48:36;12.30;99.90
16643;DHT22;8435;52.184;5.406;2023-03-21T06:51:09;12.40;99.90
16643;DHT22;8435;52.184;5.406;2023-03-21T06:53:36;12.40;99.90
16643;DHT22;8435;52.184;5.406;2023-03-21T06:56:03;12.30;99.90
16643;DHT22;8435;52.184;5.406;2023-03-21T06:58:30;12.40;99.90
16643;DHT22;8435;52.184;5.406;2023-03-21T07:00:59;12.40;99.90
16643;DHT22;8435;52.184;5.406;2023-03-21T07:03:26;12.40;99.90
16643;DHT22;8435;52.184;5.406;2023-03-21T07:05:53;12.40;99.90
16643;DHT22;8435;52.184;5.406;2023-03-21T07:08:20;12.40;99.90
16643;DHT22;8435;52.184;5.406;2023-03-21T07:10:54;12.40;99.90
16643;DHT22;8435;52.184;5.406;2023-03-21T07:13:21;12.40;99.90
16643;DHT22;8435;52.184;5.406;2023-03-21T07:15:48;12.40;99.90
16643;DHT22;8435;52.184;5.406;2023-03-21T07:18:16;12.40;99.90
16643;DHT22;8435;52.184;5.406;2023-03-21T07:20:46;12.40;99.90
16643;DHT22;8435;52.184;5.406;2023-03-21T07:23:15;12.40;99.90
16643;DHT22;8435;52.184;5.406;2023-03-21T07:25:42;12.40;99.90
16643;DHT22;8435;52.184;5.406;2023-03-21T07:28:09;12.50;99.90
16643;DHT22;8435;52.184;5.406;2023-03-21T07:30:36;12.50;99.90
16643;DHT22;8435;52.184;5.406;2023-03-21T07:33:03;12.50;99.90
16643;DHT22;8435;52.184;5.406;2023-03-21T07:35:31;12.50;99.90
16643;DHT22;8435;52.184;5.406;2023-03-21T07:37:59;12.60;99.90
16643;DHT22;8435;52.184;5.406;2023-03-21T07:40:25;12.60;99.90
16643;DHT22;8435;52.184;5.406;2023-03-21T07:42:52;12.60;99.90
16643;DHT22;8435;52.184;5.406;2023-03-21T07:45:19;12.60;99.90
16643;DHT22;8435;52.184;5.406;2023-03-21T07:47:48;12.60;99.90
16643;DHT22;8435;52.184;5.406;2023-03-21T07:50:16;12.60;99.90
16643;DHT22;8435;52.184;5.406;2023-03-21T07:52:44;12.60;99.90
16643;DHT22;8435;52.184;5.406;2023-03-21T07:55:11;12.60;99.90
16643;DHT22;8435;52.184;5.406;2023-03-21T07:57:38;12.70;99.90
16643;DHT22;8435;52.184;5.406;2023-03-21T08:00:06;12.70;99.90
16643;DHT22;8435;52.184;5.406;2023-03-21T08:02:33;12.70;99.90
16643;DHT22;8435;52.184;5.406;2023-03-21T08:05:00;12.70;99.90
16643;DHT22;8435;52.184;5.406;2023-03-21T08:07:28;12.70;99.90
16643;DHT22;8435;52.184;5.406;2023-03-21T08:09:57;12.80;99.90
16643;DHT22;8435;52.184;5.406;2023-03-21T08:12:24;12.80;99.90
16643;DHT22;8435;52.184;5.406;2023-03-21T08:14:50;12.80;99.90
16643;DHT22;8435;52.184;5.406;2023-03-21T08:17:17;12.80;99.90
16643;DHT22;8435;52.184;5.406;2023-03-21T08:19:46;12.80;99.90
16643;DHT22;8435;52.184;5.406;2023-03-21T08:22:13;12.90;99.90
16643;DHT22;8435;52.184;5.406;2023-03-21T08:24:40;12.90;99.90
16643;DHT22;8435;52.184;5.406;2023-03-21T08:27:08;12.90;99.90
16643;DHT22;8435;52.184;5.406;2023-03-21T08:29:36;12.90;99.90
16643;DHT22;8435;52.184;5.406;2023-03-21T08:32:06;13.00;99.90
16643;DHT22;8435;52.184;5.406;2023-03-21T08:34:33;13.00;99.90
16643;DHT22;8435;52.184;5.406;2023-03-21T08:37:00;13.00;99.90
16643;DHT22;8435;52.184;5.406;2023-03-21T08:39:28;13.10;99.90
16643;DHT22;8435;52.184;5.406;2023-03-21T08:41:55;13.10;99.90
16643;DHT22;8435;52.184;5.406;2023-03-21T08:44:23;13.10;99.90
16643;DHT22;8435;52.184;5.406;2023-03-21T08:46:50;13.20;99.90
16643;DHT22;8435;52.184;5.406;2023-03-21T08:49:17;13.20;99.90
16643;DHT22;8435;52.184;5.406;2023-03-21T08:51:46;13.20;99.90
16643;DHT22;8435;52.184;5.406;2023-03-21T08:54:22;13.30;99.90
16643;DHT22;8435;52.184;5.406;2023-03-21T08:56:48;13.30;99.90
16643;DHT22;8435;52.184;5.406;2023-03-21T08:59:15;13.30;99.90
16643;DHT22;8435;52.184;5.406;2023-03-21T09:01:44;13.30;99.90
16643;DHT22;8435;52.184;5.406;2023-03-21T09:04:11;13.30;99.90
16643;DHT22;8435;52.184;5.406;2023-03-21T09:06:38;13.30;99.90
16643;DHT22;8435;52.184;5.406;2023-03-21T09:09:15;13.40;99.90
16643;DHT22;8435;52.184;5.406;2023-03-21T09:11:42;13.40;99.90
16643;DHT22;8435;52.184;5.406;2023-03-21T09:14:09;13.50;99.90
16643;DHT22;8435;52.184;5.406;2023-03-21T09:16:39;13.50;99.90
16643;DHT22;8435;52.184;5.406;2023-03-21T09:19:07;13.50;99.90
16643;DHT22;8435;52.184;5.406;2023-03-21T09:21:34;13.60;99.90
16643;DHT22;8435;52.184;5.406;2023-03-21T09:24:03;13.60;99.90
16643;DHT22;8435;52.184;5.406;2023-03-21T09:26:30;13.60;99.90
16643;DHT22;8435;52.184;5.406;2023-03-21T09:29:02;13.60;99.90
16643;DHT22;8435;52.184;5.406;2023-03-21T09:31:30;13.60;99.90
16643;DHT22;8435;52.184;5.406;2023-03-21T09:33:57;13.60;99.90
16643;DHT22;8435;52.184;5.406;2023-03-21T09:36:25;13.50;99.90
16643;DHT22;8435;52.184;5.406;2023-03-21T09:38:56;13.60;99.90
16643;DHT22;8435;52.184;5.406;2023-03-21T09:41:32;13.60;99.90
16643;DHT22;8435;52.184;5.406;2023-03-21T09:44:17;13.60;99.90
16643;DHT22;8435;52.184;5.406;2023-03-21T09:46:53;13.70;99.90
16643;DHT22;8435;52.184;5.406;2023-03-21T09:49:23;13.70;99.90
16643;DHT22;8435;52.184;5.406;2023-03-21T09:51:58;13.70;99.90
16643;DHT22;8435;52.184;5.406;2023-03-21T09:54:33;13.80;99.90
16643;DHT22;8435;52.184;5.406;2023-03-21T09:57:09;13.80;99.90
16643;DHT22;8435;52.184;5.406;2023-03-21T09:59:39;13.90;99.90
16643;DHT22;8435;52.184;5.406;2023-03-21T10:02:20;13.90;99.90
16643;DHT22;8435;52.184;5.406;2023-03-21T10:04:56;13.90;99.90
16643;DHT22;8435;52.184;5.406;2023-03-21T10:07:25;14.00;99.90
16643;DHT22;8435;52.184;5.406;2023-03-21T10:09:56;14.00;99.90
16643;DHT22;8435;52.184;5.406;2023-03-21T10:12:24;14.00;99.90
16643;DHT22;8435;52.184;5.406;2023-03-21T10:14:57;14.10;99.90
16643;DHT22;8435;52.184;5.406;2023-03-21T10:17:27;14.10;99.90
16643;DHT22;8435;52.184;5.406;2023-03-21T10:20:09;14.10;99.90
16643;DHT22;8435;52.184;5.406;2023-03-21T10:22:39;14.10;99.90
16643;DHT22;8435;52.184;5.406;2023-03-21T10:25:13;14.10;99.90
16643;DHT22;8435;52.184;5.406;2023-03-21T10:27:44;14.10;99.90
16643;DHT22;8435;52.184;5.406;2023-03-21T10:30:22;14.10;99.90
16643;DHT22;8435;52.184;5.406;2023-03-21T10:32:51;14.20;99.90
16643;DHT22;8435;52.184;5.406;2023-03-21T10:35:18;14.30;99.90
16643;DHT22;8435;52.184;5.406;2023-03-21T10:37:47;14.30;99.90
16643;DHT22;8435;52.184;5.406;2023-03-21T10:40:14;14.40;99.90
16643;DHT22;8435;52.184;5.406;2023-03-21T10:42:41;14.50;99.90
16643;DHT22;8435;52.184;5.406;2023-03-21T10:45:14;14.60;99.90
16643;DHT22;8435;52.184;5.406;2023-03-21T10:47:42;14.60;99.90
16643;DHT22;8435;52.184;5.406;2023-03-21T10:50:15;14.70;99.90
16643;DHT22;8435;52.184;5.406;2023-03-21T10:52:48;14.70;99.90
16643;DHT22;8435;52.184;5.406;2023-03-21T10:55:19;14.80;99.90
16643;DHT22;8435;52.184;5.406;2023-03-21T10:57:47;14.90;99.90
16643;DHT22;8435;52.184;5.406;2023-03-21T11:00:20;14.90;99.90
16643;DHT22;8435;52.184;5.406;2023-03-21T11:02:48;15.00;99.90
16643;DHT22;8435;52.184;5.406;2023-03-21T11:05:20;15.10;99.90
16643;DHT22;8435;52.184;5.406;2023-03-21T11:07:57;15.20;99.90
16643;DHT22;8435;52.184;5.406;2023-03-21T11:10:29;15.30;99.90
16643;DHT22;8435;52.184;5.406;2023-03-21T11:13:00;15.30;99.90
16643;DHT22;8435;52.184;5.406;2023-03-21T11:15:30;15.30;99.90
16643;DHT22;8435;52.184;5.406;2023-03-21T11:17:57;15.40;99.90
16643;DHT22;8435;52.184;5.406;2023-03-21T11:20:24;15.50;99.90
16643;DHT22;8435;52.184;5.406;2023-03-21T11:22:53;15.60;99.90
16643;DHT22;8435;52.184;5.406;2023-03-21T11:25:32;15.60;99.90
16643;DHT22;8435;52.184;5.406;2023-03-21T11:28:06;15.70;99.90
16643;DHT22;8435;52.184;5.406;2023-03-21T11:30:34;15.70;99.90
16643;DHT22;8435;52.184;5.406;2023-03-21T11:33:02;15.70;99.90
16643;DHT22;8435;52.184;5.406;2023-03-21T11:35:34;15.80;99.90
16643;DHT22;8435;52.184;5.406;2023-03-21T11:38:02;15.90;99.90
16643;DHT22;8435;52.184;5.406;2023-03-21T11:40:31;15.90;99.90
16643;DHT22;8435;52.184;5.406;2023-03-21T11:43:00;16.00;99.90
16643;DHT22;8435;52.184;5.406;2023-03-21T11:45:29;16.10;99.90
16643;DHT22;8435;52.184;5.406;2023-03-21T11:47:57;16.10;99.90
16643;DHT22;8435;52.184;5.406;2023-03-21T11:50:28;16.10;99.90
16643;DHT22;8435;52.184;5.406;2023-03-21T11:53:19;16.20;99.90
16643;DHT22;8435;52.184;5.406;2023-03-21T11:56:03;16.20;99.90
16643;DHT22;8435;52.184;5.406;2023-03-21T11:58:42;16.20;99.90
16643;DHT22;8435;52.184;5.406;2023-03-21T12:01:16;16.30;99.90
16643;DHT22;8435;52.184;5.406;2023-03-21T12:03:58;16.30;99.90
16643;DHT22;8435;52.184;5.406;2023-03-21T12:06:30;16.40;99.90
16643;DHT22;8435;52.184;5.406;2023-03-21T12:09:16;16.30;99.90
16643;DHT22;8435;52.184;5.406;2023-03-21T12:11:58;16.40;99.90
16643;DHT22;8435;52.184;5.406;2023-03-21T12:14:31;16.50;99.90
16643;DHT22;8435;52.184;5.406;2023-03-21T12:17:09;16.50;99.90
16643;DHT22;8435;52.184;5.406;2023-03-21T12:19:59;16.50;99.90
16643;DHT22;8435;52.184;5.406;2023-03-21T12:22:37;16.40;99.90
16643;DHT22;8435;52.184;5.406;2023-03-21T12:25:09;16.50;99.90
16643;DHT22;8435;52.184;5.406;2023-03-21T12:27:45;16.40;99.90
16643;DHT22;8435;52.184;5.406;2023-03-21T12:30:36;16.50;99.90
16643;DHT22;8435;52.184;5.406;2023-03-21T12:33:24;16.50;99.90
16643;DHT22;8435;52.184;5.406;2023-03-21T12:36:06;16.50;99.90
16643;DHT22;8435;52.184;5.406;2023-03-21T12:38:40;16.50;99.90
16643;DHT22;8435;52.184;5.406;2023-03-21T12:41:19;16.60;99.90
16643;DHT22;8435;52.184;5.406;2023-03-21T12:43:53;16.60;99.90
16643;DHT22;8435;52.184;5.406;2023-03-21T12:46:24;16.70;99.90
16643;DHT22;8435;52.184;5.406;2023-03-21T12:48:57;16.70;99.90
16643;DHT22;8435;52.184;5.406;2023-03-21T12:51:28;16.80;99.90
16643;DHT22;8435;52.184;5.406;2023-03-21T12:54:12;16.80;99.90
16643;DHT22;8435;52.184;5.406;2023-03-21T12:56:47;16.90;99.90
16643;DHT22;8435;52.184;5.406;2023-03-21T12:59:25;17.00;99.90
16643;DHT22;8435;52.184;5.406;2023-03-21T13:01:58;17.10;99.60
16643;DHT22;8435;52.184;5.406;2023-03-21T13:04:44;17.10;99.50
16643;DHT22;8435;52.184;5.406;2023-03-21T13:07:15;17.30;99.10
16643;DHT22;8435;52.184;5.406;2023-03-21T13:09:47;17.30;99.30
16643;DHT22;8435;52.184;5.406;2023-03-21T13:12:33;17.30;99.30
16643;DHT22;8435;52.184;5.406;2023-03-21T13:15:25;17.30;98.90
16643;DHT22;8435;52.184;5.406;2023-03-21T13:18:01;17.30;98.50
16643;DHT22;8435;52.184;5.406;2023-03-21T13:20:34;17.30;98.70
16643;DHT22;8435;52.184;5.406;2023-03-21T13:23:03;17.20;98.30
16643;DHT22;8435;52.184;5.406;2023-03-21T13:25:31;17.20;98.50
16643;DHT22;8435;52.184;5.406;2023-03-21T13:28:01;17.20;98.20
16643;DHT22;8435;52.184;5.406;2023-03-21T13:30:30;17.20;98.10
16643;DHT22;8435;52.184;5.406;2023-03-21T13:33:04;17.10;97.80
16643;DHT22;8435;52.184;5.406;2023-03-21T13:35:35;17.10;97.30
16643;DHT22;8435;52.184;5.406;2023-03-21T13:38:05;17.10;98.00
16643;DHT22;8435;52.184;5.406;2023-03-21T13:40:40;17.20;97.90
16643;DHT22;8435;52.184;5.406;2023-03-21T13:46:35;17.20;97.10
16643;DHT22;8435;52.184;5.406;2023-03-21T13:49:14;17.30;97.30
16643;DHT22;8435;52.184;5.406;2023-03-21T13:51:43;17.20;97.40
16643;DHT22;8435;52.184;5.406;2023-03-21T13:54:19;17.30;97.30
16643;DHT22;8435;52.184;5.406;2023-03-21T13:56:53;17.30;96.80
16643;DHT22;8435;52.184;5.406;2023-03-21T13:59:40;17.30;97.20
16643;DHT22;8435;52.184;5.406;2023-03-21T14:02:32;17.30;96.50
16643;DHT22;8435;52.184;5.406;2023-03-21T14:05:01;17.30;96.70
16643;DHT22;8435;52.184;5.406;2023-03-21T14:07:29;17.30;97.30
16643;DHT22;8435;52.184;5.406;2023-03-21T14:09:59;17.30;97.20
16643;DHT22;8435;52.184;5.406;2023-03-21T14:12:29;17.30;97.00
16643;DHT22;8435;52.184;5.406;2023-03-21T14:15:02;17.20;97.10
16643;DHT22;8435;52.184;5.406;2023-03-21T14:17:33;17.20;96.50
16643;DHT22;8435;52.184;5.406;2023-03-21T14:20:05;17.20;97.20
16643;DHT22;8435;52.184;5.406;2023-03-21T14:22:37;17.20;97.00
16643;DHT22;8435;52.184;5.406;2023-03-21T14:25:10;17.20;97.10
16643;DHT22;8435;52.184;5.406;2023-03-21T14:27:37;17.20;96.90
16643;DHT22;8435;52.184;5.406;2023-03-21T14:30:11;17.10;97.10
16643;DHT22;8435;52.184;5.406;2023-03-21T14:32:46;17.10;96.70
16643;DHT22;8435;52.184;5.406;2023-03-21T14:35:13;17.00;96.90
16643;DHT22;8435;52.184;5.406;2023-03-21T14:37:45;17.00;96.90
16643;DHT22;8435;52.184;5.406;2023-03-21T14:40:21;17.00;96.90
16643;DHT22;8435;52.184;5.406;2023-03-21T14:42:50;17.00;96.90
16643;DHT22;8435;52.184;5.406;2023-03-21T14:45:19;16.90;97.00
16643;DHT22;8435;52.184;5.406;2023-03-21T14:47:57;16.90;97.00
16643;DHT22;8435;52.184;5.406;2023-03-21T14:50:30;16.90;96.90
16643;DHT22;8435;52.184;5.406;2023-03-21T14:52:59;16.80;96.80
16643;DHT22;8435;52.184;5.406;2023-03-21T14:55:26;16.80;97.00
16643;DHT22;8435;52.184;5.406;2023-03-21T14:57:55;16.80;96.90
16643;DHT22;8435;52.184;5.406;2023-03-21T15:00:27;16.70;96.90
16643;DHT22;8435;52.184;5.406;2023-03-21T15:03:01;16.70;97.20
16643;DHT22;8435;52.184;5.406;2023-03-21T15:05:31;16.70;97.00
16643;DHT22;8435;52.184;5.406;2023-03-21T15:07:59;16.70;97.10
16643;DHT22;8435;52.184;5.406;2023-03-21T15:10:28;16.60;97.10
16643;DHT22;8435;52.184;5.406;2023-03-21T15:12:57;16.60;97.10
16643;DHT22;8435;52.184;5.406;2023-03-21T15:15:26;16.60;97.20
16643;DHT22;8435;52.184;5.406;2023-03-21T15:17:55;16.60;97.40
16643;DHT22;8435;52.184;5.406;2023-03-21T15:20:28;16.50;97.50
16643;DHT22;8435;52.184;5.406;2023-03-21T15:23:01;16.50;97.20
16643;DHT22;8435;52.184;5.406;2023-03-21T15:25:33;16.50;97.60
16643;DHT22;8435;52.184;5.406;2023-03-21T15:28:01;16.50;97.40
16643;DHT22;8435;52.184;5.406;2023-03-21T15:30:29;16.50;97.50
16643;DHT22;8435;52.184;5.406;2023-03-21T15:33:04;16.60;97.60
16643;DHT22;8435;52.184;5.406;2023-03-21T15:35:38;16.50;97.20
16643;DHT22;8435;52.184;5.406;2023-03-21T15:38:05;16.50;97.40
16643;DHT22;8435;52.184;5.406;2023-03-21T15:40:34;16.50;97.40
16643;DHT22;8435;52.184;5.406;2023-03-21T15:43:05;16.50;97.60
16643;DHT22;8435;52.184;5.406;2023-03-21T15:45:33;16.50;97.60
16643;DHT22;8435;52.184;5.406;2023-03-21T15:48:01;16.40;97.60
16643;DHT22;8435;52.184;5.406;2023-03-21T15:50:34;16.30;97.60
16643;DHT22;8435;52.184;5.406;2023-03-21T15:53:05;16.40;97.80
16643;DHT22;8435;52.184;5.406;2023-03-21T15:55:39;16.30;97.80
16643;DHT22;8435;52.184;5.406;2023-03-21T15:58:12;16.30;98.00
16643;DHT22;8435;52.184;5.406;2023-03-21T16:00:45;16.30;97.90
16643;DHT22;8435;52.184;5.406;2023-03-21T16:03:16;16.20;98.00
16643;DHT22;8435;52.184;5.406;2023-03-21T16:06:13;16.20;98.00
16643;DHT22;8435;52.184;5.406;2023-03-21T16:08:43;16.10;97.90
16643;DHT22;8435;52.184;5.406;2023-03-21T16:11:16;16.10;98.00
16643;DHT22;8435;52.184;5.406;2023-03-21T16:13:43;16.10;98.10